createdAt,value
2017-08-29T00:01:40.506Z,7.77
2017-08-29T00:04:08.171Z,8.20
2017-08-29T00:06:36.791Z,9.40
2017-08-29T00:09:04.743Z,9.50
2017-08-29T00:11:32.376Z,9.47
2017-08-29T00:14:00.138Z,11.53
2017-08-29T00:16:27.818Z,11.70
2017-08-29T00:18:55.659Z,8.57
2017-08-29T00:21:23.425Z,9.43
2017-08-29T00:23:50.996Z,8.60
2017-08-29T00:26:18.631Z,11.03
2017-08-29T00:28:46.409Z,11.27
2017-08-29T00:31:13.983Z,12.43
2017-08-29T00:33:41.938Z,8.63
2017-08-29T00:36:09.712Z,12.67
2017-08-29T00:38:38.683Z,12.07
2017-08-29T00:41:06.312Z,12.50
2017-08-29T00:43:33.912Z,13.33
2017-08-29T00:46:01.485Z,12.63
2017-08-29T00:48:29.431Z,13.40
2017-08-29T00:50:57.030Z,8.97
2017-08-29T00:53:24.652Z,8.83
2017-08-29T00:55:52.435Z,12.70
2017-08-29T00:58:20.207Z,9.83
2017-08-29T01:00:47.766Z,11.90
2017-08-29T01:03:15.407Z,16.43
2017-08-29T01:05:43.163Z,9.03
2017-08-29T01:08:10.728Z,19.20
2017-08-29T01:10:38.310Z,10.33
2017-08-29T01:13:06.165Z,11.00
2017-08-29T01:15:33.747Z,14.10
2017-08-29T01:18:01.432Z,9.10
2017-08-29T01:20:29.023Z,15.53
2017-08-29T01:22:56.707Z,9.63
2017-08-29T01:25:24.354Z,7.30
2017-08-29T01:27:51.914Z,8.00
2017-08-29T01:30:19.590Z,13.43
2017-08-29T01:32:47.159Z,9.70
2017-08-29T01:35:14.757Z,14.80
2017-08-29T01:37:42.326Z,9.70
2017-08-29T01:40:09.920Z,10.20
2017-08-29T01:42:37.795Z,9.73
2017-08-29T01:45:05.351Z,15.60
2017-08-29T01:47:32.927Z,9.37
2017-08-29T01:50:00.511Z,8.37
2017-08-29T01:52:28.094Z,9.60
2017-08-29T01:54:55.670Z,8.77
2017-08-29T01:57:23.439Z,8.60
2017-08-29T01:59:51.248Z,8.07
2017-08-29T02:02:18.891Z,6.50
2017-08-29T02:04:46.469Z,11.70
2017-08-29T02:07:14.178Z,19.33
2017-08-29T02:09:41.952Z,11.67
2017-08-29T02:12:09.535Z,11.73
2017-08-29T02:14:37.148Z,10.93
2017-08-29T02:17:04.932Z,7.87
2017-08-29T02:19:32.816Z,10.97
2017-08-29T02:22:00.577Z,14.30
2017-08-29T02:24:28.238Z,13.03
2017-08-29T02:26:55.987Z,15.03
2017-08-29T02:29:23.753Z,17.20
2017-08-29T02:31:51.511Z,10.93
2017-08-29T02:34:19.289Z,13.83
2017-08-29T02:36:47.038Z,8.40
2017-08-29T02:39:14.825Z,11.50
2017-08-29T02:41:42.399Z,11.23
2017-08-29T02:44:09.988Z,14.73
2017-08-29T02:46:37.786Z,7.93
2017-08-29T02:49:05.555Z,16.50
2017-08-29T02:51:33.111Z,9.20
2017-08-29T02:54:00.698Z,11.20
2017-08-29T02:56:28.262Z,16.80
2017-08-29T02:58:55.990Z,11.40
2017-08-29T03:01:23.751Z,8.80
2017-08-29T03:03:51.531Z,13.80
2017-08-29T03:06:19.401Z,13.03
2017-08-29T03:08:46.960Z,8.47
2017-08-29T03:11:14.811Z,15.80
2017-08-29T03:13:42.395Z,8.07
2017-08-29T03:16:10.104Z,14.97
2017-08-29T03:18:37.814Z,10.80
2017-08-29T03:21:05.554Z,10.13
2017-08-29T03:23:33.632Z,10.60
2017-08-29T03:26:01.512Z,12.33
2017-08-29T03:28:29.159Z,15.60
2017-08-29T03:30:56.922Z,10.33
2017-08-29T03:33:24.670Z,15.50
2017-08-29T03:35:53.026Z,14.40
2017-08-29T03:38:20.605Z,11.60
2017-08-29T03:40:48.223Z,9.77
2017-08-29T03:43:16.049Z,11.70
2017-08-29T03:45:43.828Z,7.73
2017-08-29T03:48:11.431Z,17.23
2017-08-29T03:50:39.003Z,7.20
2017-08-29T03:53:06.808Z,7.60
2017-08-29T03:55:34.675Z,6.70
2017-08-29T03:58:02.438Z,9.60
2017-08-29T04:00:30.007Z,10.30
2017-08-29T04:02:57.589Z,8.53
2017-08-29T04:05:25.287Z,10.13
2017-08-29T04:07:53.054Z,8.10
2017-08-29T04:10:20.953Z,10.97
2017-08-29T04:12:48.610Z,8.00
2017-08-29T04:15:16.279Z,7.33
2017-08-29T04:17:43.868Z,9.77
2017-08-29T04:20:11.560Z,5.97
2017-08-29T04:22:39.334Z,5.97
2017-08-29T04:25:07.103Z,8.80
2017-08-29T04:27:35.191Z,7.30
2017-08-29T04:30:03.046Z,12.63
2017-08-29T04:32:30.616Z,7.90
2017-08-29T04:34:58.198Z,8.90
2017-08-29T04:37:26.042Z,11.60
2017-08-29T04:39:53.627Z,13.60
2017-08-29T04:42:21.570Z,10.47
2017-08-29T04:44:49.155Z,8.97
2017-08-29T04:47:16.978Z,11.27
2017-08-29T04:49:44.655Z,10.80
2017-08-29T04:52:12.214Z,9.80
2017-08-29T04:54:40.053Z,10.73
2017-08-29T04:57:07.715Z,10.10
2017-08-29T04:59:35.490Z,7.10
2017-08-29T05:02:03.083Z,8.60
2017-08-29T05:04:30.675Z,12.83
2017-08-29T05:06:58.255Z,14.13
2017-08-29T05:09:26.607Z,11.80
2017-08-29T05:11:54.199Z,7.13
2017-08-29T05:14:21.790Z,8.50
2017-08-29T05:16:49.368Z,11.30
2017-08-29T05:19:16.995Z,13.40
2017-08-29T05:21:44.743Z,6.40
2017-08-29T05:24:13.639Z,13.27
2017-08-29T05:26:41.260Z,6.03
2017-08-29T05:29:08.875Z,14.97
2017-08-29T05:31:36.458Z,9.90
2017-08-29T05:34:04.035Z,14.20
2017-08-29T05:36:31.943Z,9.57
2017-08-29T05:38:59.724Z,12.43
2017-08-29T05:41:27.779Z,14.33
2017-08-29T05:43:55.360Z,9.40
2017-08-29T05:46:23.027Z,11.07
2017-08-29T05:48:50.762Z,10.83
2017-08-29T05:51:18.323Z,13.00
2017-08-29T05:53:46.315Z,8.07
2017-08-29T05:56:14.011Z,22.90
2017-08-29T05:58:41.820Z,17.03
2017-08-29T06:01:09.386Z,17.93
2017-08-29T06:03:37.791Z,27.47
2017-08-29T06:06:05.862Z,11.10
2017-08-29T06:08:34.278Z,24.33
2017-08-29T06:11:02.195Z,26.00
2017-08-29T06:13:29.892Z,16.50
2017-08-29T06:15:57.699Z,22.63
2017-08-29T06:18:25.780Z,20.13
2017-08-29T06:20:53.510Z,14.73
2017-08-29T06:23:21.620Z,35.20
2017-08-29T06:25:49.343Z,12.90
2017-08-29T06:28:17.131Z,23.80
2017-08-29T06:30:44.719Z,20.17
2017-08-29T06:33:12.469Z,18.30
2017-08-29T06:35:40.194Z,14.80
2017-08-29T06:38:07.879Z,14.50
2017-08-29T06:40:35.947Z,19.93
2017-08-29T06:43:03.507Z,18.43
2017-08-29T06:45:31.099Z,12.03
2017-08-29T06:47:58.659Z,15.23
2017-08-29T06:50:26.507Z,17.80
2017-08-29T06:52:54.156Z,24.73
2017-08-29T06:55:21.916Z,7.70
2017-08-29T06:57:49.684Z,13.33
2017-08-29T07:00:17.435Z,15.47
2017-08-29T07:02:45.187Z,21.73
2017-08-29T07:05:12.986Z,16.30
2017-08-29T07:07:41.284Z,16.53
2017-08-29T07:10:08.846Z,15.03
2017-08-29T07:12:36.687Z,19.13
2017-08-29T07:15:04.308Z,13.33
2017-08-29T07:17:31.892Z,13.03
2017-08-29T07:19:59.558Z,21.77
2017-08-29T07:22:27.157Z,22.17
2017-08-29T07:24:54.765Z,34.03
2017-08-29T07:27:22.808Z,23.63
2017-08-29T07:29:50.362Z,19.30
2017-08-29T07:32:18.067Z,19.27
2017-08-29T07:34:45.627Z,24.10
2017-08-29T07:37:13.283Z,16.40
2017-08-29T07:39:40.872Z,34.70
2017-08-29T07:42:08.516Z,20.73
2017-08-29T07:44:36.386Z,48.90
2017-08-29T07:47:04.346Z,25.93
2017-08-29T07:49:31.927Z,19.63
2017-08-29T07:51:59.523Z,9.57
2017-08-29T07:54:27.334Z,22.87
2017-08-29T07:56:55.308Z,12.67
2017-08-29T07:59:22.891Z,15.10
2017-08-29T08:01:50.732Z,15.40
2017-08-29T08:04:18.315Z,13.97
2017-08-29T08:06:45.889Z,21.77
2017-08-29T08:09:13.594Z,15.23
2017-08-29T08:11:41.172Z,24.20
2017-08-29T08:14:08.747Z,13.83
2017-08-29T08:16:36.318Z,12.40
2017-08-29T08:19:04.043Z,14.60
2017-08-29T08:21:31.622Z,11.80
2017-08-29T08:23:59.211Z,21.13
2017-08-29T08:26:27.018Z,18.60
2017-08-29T08:28:54.656Z,22.87
2017-08-29T08:31:22.219Z,17.27
2017-08-29T08:33:50.124Z,12.70
2017-08-29T08:36:17.695Z,19.20
2017-08-29T08:38:45.260Z,10.60
2017-08-29T08:41:12.993Z,12.70
2017-08-29T08:43:40.734Z,23.03
2017-08-29T08:46:08.322Z,13.83
2017-08-29T08:48:35.984Z,12.43
2017-08-29T08:51:05.083Z,10.80
2017-08-29T08:53:32.731Z,32.97
2017-08-29T08:56:00.495Z,15.90
2017-08-29T08:58:28.236Z,24.73
2017-08-29T09:00:56.610Z,23.57
2017-08-29T09:03:24.234Z,17.73
2017-08-29T09:05:52.171Z,16.23
2017-08-29T09:08:19.995Z,15.57
2017-08-29T09:10:47.691Z,14.83
2017-08-29T09:13:15.447Z,14.60
2017-08-29T09:15:43.039Z,11.30
2017-08-29T09:18:10.603Z,14.73
2017-08-29T09:20:38.214Z,24.87
2017-08-29T09:23:05.782Z,15.67
2017-08-29T09:25:33.462Z,14.20
2017-08-29T09:28:01.032Z,19.53
2017-08-29T09:33:02.788Z,11.23
2017-08-29T09:35:30.562Z,22.53
2017-08-29T09:37:58.144Z,15.93
2017-08-29T09:40:25.721Z,15.97
2017-08-29T09:42:53.299Z,16.33
2017-08-29T09:45:21.107Z,25.73
2017-08-29T09:47:48.973Z,18.23
2017-08-29T09:50:16.543Z,13.60
2017-08-29T09:52:44.283Z,14.50
2017-08-29T09:55:12.041Z,14.53
2017-08-29T09:57:39.644Z,16.70
2017-08-29T10:00:07.230Z,11.30
2017-08-29T10:02:34.836Z,16.53
2017-08-29T10:05:02.601Z,20.33
2017-08-29T10:07:30.204Z,13.83
2017-08-29T10:09:57.767Z,11.93
2017-08-29T10:12:25.339Z,18.17
2017-08-29T10:14:53.475Z,10.00
2017-08-29T10:17:21.168Z,19.50
2017-08-29T10:19:48.751Z,12.77
2017-08-29T10:22:16.524Z,13.20
2017-08-29T10:24:44.303Z,10.23
2017-08-29T10:27:12.075Z,12.03
2017-08-29T10:29:39.995Z,12.33
2017-08-29T10:32:07.563Z,9.23
2017-08-29T10:34:35.145Z,16.90
2017-08-29T10:37:02.755Z,13.03
2017-08-29T10:39:30.356Z,10.30
2017-08-29T10:41:57.914Z,15.80
2017-08-29T10:44:25.512Z,23.83
2017-08-29T10:46:53.088Z,11.47
2017-08-29T10:49:20.655Z,23.73
2017-08-29T10:51:48.246Z,17.70
2017-08-29T10:54:16.133Z,12.20
2017-08-29T10:56:43.707Z,7.93
2017-08-29T10:59:11.273Z,15.53
2017-08-29T11:01:39.316Z,14.53
2017-08-29T11:04:07.099Z,13.93
2017-08-29T11:06:34.837Z,20.97
2017-08-29T11:09:02.396Z,9.77
2017-08-29T11:11:30.055Z,10.20
2017-08-29T11:13:57.819Z,14.40
2017-08-29T11:16:25.583Z,10.87
2017-08-29T11:18:53.138Z,7.60
2017-08-29T11:21:20.847Z,14.43
2017-08-29T11:23:48.406Z,11.17
2017-08-29T11:26:16.302Z,9.63
2017-08-29T11:28:43.875Z,16.40
2017-08-29T11:31:12.227Z,16.50
2017-08-29T11:33:39.796Z,19.53
2017-08-29T11:36:07.392Z,19.43
2017-08-29T11:38:34.964Z,11.77
2017-08-29T11:41:02.551Z,19.50
2017-08-29T11:43:30.135Z,10.33
2017-08-29T11:45:57.806Z,22.30
2017-08-29T11:48:25.383Z,21.60
2017-08-29T11:50:52.942Z,9.47
2017-08-29T11:53:20.534Z,12.87
2017-08-29T11:55:48.124Z,17.67
2017-08-29T11:58:15.716Z,14.40
2017-08-29T12:00:43.455Z,16.10
2017-08-29T12:03:11.978Z,15.43
2017-08-29T12:05:40.073Z,13.80
2017-08-29T12:08:08.701Z,19.50
2017-08-29T12:10:36.367Z,13.93
2017-08-29T12:13:05.184Z,13.67
2017-08-29T12:15:32.898Z,19.30
2017-08-29T12:18:00.587Z,23.37
2017-08-29T12:20:28.359Z,15.03
2017-08-29T12:22:56.110Z,11.07
2017-08-29T12:25:23.866Z,13.97
2017-08-29T12:27:51.649Z,16.03
2017-08-29T12:30:19.530Z,16.93
2017-08-29T12:32:47.175Z,15.37
2017-08-29T12:35:15.056Z,22.87
2017-08-29T12:37:42.708Z,13.90
2017-08-29T12:40:10.491Z,19.40
2017-08-29T12:42:38.056Z,12.37
2017-08-29T12:45:05.791Z,19.60
2017-08-29T12:47:33.448Z,20.67
2017-08-29T12:50:01.035Z,16.53
2017-08-29T12:52:28.602Z,12.07
2017-08-29T12:54:56.202Z,19.93
2017-08-29T12:57:23.882Z,12.67
2017-08-29T12:59:51.654Z,25.00
2017-08-29T13:02:19.428Z,18.10
2017-08-29T13:04:47.183Z,22.00
2017-08-29T13:07:14.812Z,26.43
2017-08-29T13:09:42.387Z,21.23
2017-08-29T13:12:10.176Z,17.73
2017-08-29T13:14:38.130Z,11.97
2017-08-29T13:17:05.730Z,17.90
2017-08-29T13:19:33.319Z,18.90
2017-08-29T13:22:00.903Z,18.03
2017-08-29T13:24:28.794Z,25.10
2017-08-29T13:26:56.435Z,22.17
2017-08-29T13:29:23.994Z,16.90
2017-08-29T13:31:51.583Z,18.80
2017-08-29T13:34:19.271Z,17.67
2017-08-29T13:36:46.878Z,19.20
2017-08-29T13:39:14.717Z,19.67
2017-08-29T13:41:42.291Z,18.30
2017-08-29T13:44:10.171Z,20.03
2017-08-29T13:46:37.740Z,20.43
2017-08-29T13:49:05.322Z,22.03
2017-08-29T13:51:32.888Z,16.83
2017-08-29T13:54:00.730Z,21.53
2017-08-29T13:56:28.392Z,24.87
2017-08-29T13:58:56.002Z,18.20
2017-08-29T14:01:23.570Z,16.57
2017-08-29T14:03:51.372Z,26.37
2017-08-29T14:06:18.968Z,19.60
2017-08-29T14:08:46.563Z,21.73
2017-08-29T14:11:14.347Z,16.30
2017-08-29T14:13:42.115Z,24.43
2017-08-29T14:16:09.680Z,21.17
2017-08-29T14:18:37.336Z,20.73
2017-08-29T14:21:04.914Z,20.00
2017-08-29T14:23:32.532Z,16.30
2017-08-29T14:26:00.325Z,32.67
2017-08-29T14:28:28.063Z,26.57
2017-08-29T14:30:55.660Z,21.30
2017-08-29T14:33:23.243Z,21.80
2017-08-29T14:35:50.875Z,20.33
2017-08-29T14:38:18.630Z,22.63
2017-08-29T14:40:46.211Z,23.93
2017-08-29T14:43:14.323Z,30.87
2017-08-29T14:45:42.101Z,22.30
2017-08-29T14:48:21.411Z,26.70
2017-08-29T14:50:48.999Z,19.60
2017-08-29T14:53:16.761Z,18.27
2017-08-29T14:55:44.355Z,24.53
2017-08-29T14:58:11.928Z,16.73
2017-08-29T15:00:39.525Z,18.97
2017-08-29T15:03:07.092Z,20.97
2017-08-29T15:05:34.699Z,19.27
2017-08-29T15:08:02.291Z,23.30
2017-08-29T15:10:29.867Z,23.70
2017-08-29T15:12:57.651Z,21.97
2017-08-29T15:15:25.321Z,20.23
2017-08-29T15:17:53.012Z,17.30
2017-08-29T15:20:20.582Z,21.40
2017-08-29T15:22:48.467Z,21.77
2017-08-29T15:25:16.779Z,24.43
2017-08-29T15:27:44.364Z,20.30
2017-08-29T15:30:11.967Z,22.63
2017-08-29T15:32:39.551Z,24.73
2017-08-29T15:35:07.227Z,25.80
2017-08-29T15:37:34.988Z,26.60
2017-08-29T15:40:02.556Z,26.53
2017-08-29T15:42:30.517Z,25.20
2017-08-29T15:44:58.271Z,21.87
2017-08-29T15:47:25.902Z,33.03
2017-08-29T15:49:53.504Z,26.93
2017-08-29T15:52:21.256Z,23.67
2017-08-29T15:54:49.220Z,33.50
2017-08-29T15:57:16.987Z,23.13
2017-08-29T15:59:44.764Z,24.50
2017-08-29T16:02:12.448Z,21.23
2017-08-29T16:04:40.189Z,23.83
2017-08-29T16:07:07.953Z,24.40
2017-08-29T16:09:35.534Z,22.70
2017-08-29T16:12:03.123Z,21.77
2017-08-29T16:14:30.709Z,17.80
2017-08-29T16:16:58.584Z,22.00
2017-08-29T16:19:26.178Z,20.10
2017-08-29T16:21:53.818Z,18.97
2017-08-29T16:24:21.396Z,17.90
2017-08-29T16:26:49.087Z,17.90
2017-08-29T16:29:16.904Z,17.07
2017-08-29T16:31:44.491Z,20.50
2017-08-29T16:34:12.067Z,17.90
2017-08-29T16:36:39.780Z,24.17
2017-08-29T16:39:07.344Z,24.13
2017-08-29T16:41:36.211Z,22.40
2017-08-29T16:44:04.055Z,20.13
2017-08-29T16:46:32.094Z,22.53
2017-08-29T16:49:00.135Z,30.20
2017-08-29T16:51:28.028Z,21.70
2017-08-29T16:53:55.655Z,23.50
2017-08-29T16:56:23.419Z,21.70
2017-08-29T16:58:51.198Z,24.40
2017-08-29T17:01:19.269Z,19.53
2017-08-29T17:03:46.995Z,22.17
2017-08-29T17:06:14.788Z,26.63
2017-08-29T17:08:42.560Z,19.13
2017-08-29T17:11:10.287Z,22.67
2017-08-29T17:13:37.878Z,21.53
2017-08-29T17:16:07.190Z,29.00
2017-08-29T17:18:37.195Z,19.07
2017-08-29T17:21:08.851Z,17.10
2017-08-29T17:23:36.498Z,23.40
2017-08-29T17:26:04.377Z,28.50
2017-08-29T17:28:32.708Z,28.30
2017-08-29T17:31:01.134Z,32.10
2017-08-29T17:33:30.638Z,28.43
2017-08-29T17:35:58.215Z,36.30
2017-08-29T17:38:26.165Z,26.40
2017-08-29T17:40:56.036Z,32.43
2017-08-29T17:43:24.254Z,27.47
2017-08-29T17:45:53.107Z,26.90
2017-08-29T17:48:20.820Z,32.97
2017-08-29T17:50:48.847Z,28.03
2017-08-29T17:53:16.699Z,29.53
2017-08-29T17:55:44.614Z,38.43
2017-08-29T17:58:12.243Z,27.30
2017-08-29T18:00:40.018Z,30.63
2017-08-29T18:03:07.612Z,39.10
2017-08-29T18:05:35.622Z,30.80
2017-08-29T18:08:03.187Z,26.87
2017-08-29T18:10:31.085Z,38.93
2017-08-29T18:12:58.850Z,39.73
2017-08-29T18:15:26.446Z,33.97
2017-08-29T18:17:54.068Z,38.93
2017-08-29T18:20:21.657Z,42.77
2017-08-29T18:22:49.255Z,34.63
2017-08-29T18:25:17.359Z,70.30
2017-08-29T18:27:44.935Z,82.73
2017-08-29T18:30:12.528Z,88.77
2017-08-29T18:32:40.102Z,71.10
2017-08-29T18:35:07.707Z,62.47
2017-08-29T18:37:35.278Z,43.30
2017-08-29T18:40:03.013Z,50.07
2017-08-29T18:42:30.579Z,44.00
2017-08-29T18:44:58.445Z,43.23
2017-08-29T18:47:26.019Z,37.70
2017-08-29T18:49:53.750Z,40.23
2017-08-29T18:52:21.347Z,61.57
2017-08-29T18:54:48.981Z,48.13
2017-08-29T18:57:16.731Z,35.43
2017-08-29T18:59:44.299Z,43.60
2017-08-29T19:02:11.952Z,39.37
2017-08-29T19:04:39.695Z,39.70
2017-08-29T19:07:07.912Z,32.10
2017-08-29T19:09:36.179Z,43.63
2017-08-29T19:12:04.346Z,42.30
2017-08-29T19:14:31.989Z,54.03
2017-08-29T19:16:59.783Z,46.97
2017-08-29T19:19:28.160Z,41.87
2017-08-29T19:21:55.743Z,36.30
2017-08-29T19:24:23.315Z,44.83
2017-08-29T19:26:51.131Z,35.70
2017-08-29T19:29:18.706Z,36.87
2017-08-29T19:31:46.278Z,39.87
2017-08-29T19:34:13.886Z,43.73
2017-08-29T19:36:41.565Z,48.97
2017-08-29T19:39:09.318Z,44.27
2017-08-29T19:41:37.073Z,42.13
2017-08-29T19:44:04.869Z,45.03
2017-08-29T19:46:32.638Z,46.00
2017-08-29T19:49:00.414Z,48.30
2017-08-29T19:51:27.984Z,48.07
2017-08-29T19:53:55.622Z,46.53
2017-08-29T19:56:23.357Z,50.90
2017-08-29T19:58:50.948Z,57.10
2017-08-29T20:01:18.584Z,50.03
2017-08-29T20:03:46.191Z,52.47
2017-08-29T20:06:13.817Z,82.57
2017-08-29T20:08:41.388Z,86.63
2017-08-29T20:11:08.990Z,65.80
2017-08-29T20:13:36.566Z,61.57
2017-08-29T20:16:04.247Z,57.70
2017-08-29T20:18:32.574Z,53.07
2017-08-29T20:21:00.212Z,51.30
2017-08-29T20:23:27.860Z,52.00
2017-08-29T20:25:55.936Z,52.20
2017-08-29T20:28:23.875Z,63.70
2017-08-29T20:30:51.462Z,59.70
2017-08-29T20:33:19.028Z,50.90
2017-08-29T20:35:46.621Z,50.17
2017-08-29T20:38:14.182Z,50.20
2017-08-29T20:40:41.903Z,47.60
2017-08-29T20:43:09.475Z,51.80
2017-08-29T20:45:37.227Z,53.97
2017-08-29T20:48:05.171Z,68.03
2017-08-29T20:50:32.852Z,54.37
2017-08-29T20:53:00.489Z,61.30
2017-08-29T20:55:29.141Z,45.40
2017-08-29T20:57:57.150Z,60.13
2017-08-29T21:00:24.725Z,54.43
2017-08-29T21:02:52.563Z,46.27
2017-08-29T21:05:20.139Z,46.23
2017-08-29T21:07:47.912Z,49.43
2017-08-29T21:10:15.476Z,53.60
2017-08-29T21:12:43.064Z,54.57
2017-08-29T21:15:10.639Z,43.37
2017-08-29T21:17:38.359Z,60.73
2017-08-29T21:20:05.927Z,54.60
2017-08-29T21:22:33.574Z,62.90
2017-08-29T21:25:01.168Z,74.13
2017-08-29T21:27:28.771Z,53.07
2017-08-29T21:29:56.543Z,65.63
2017-08-29T21:32:24.287Z,49.43
2017-08-29T21:34:51.887Z,44.73
2017-08-29T21:37:19.508Z,56.53
2017-08-29T21:39:47.291Z,42.60
2017-08-29T21:42:15.567Z,47.63
2017-08-29T21:44:43.343Z,42.47
2017-08-29T21:47:11.046Z,55.60
2017-08-29T21:49:38.644Z,44.93
2017-08-29T21:52:06.395Z,45.80
2017-08-29T21:54:34.193Z,45.83
2017-08-29T21:57:01.957Z,66.83
2017-08-29T21:59:30.023Z,57.77
2017-08-29T22:01:57.794Z,48.80
2017-08-29T22:04:26.165Z,50.53
2017-08-29T22:06:53.922Z,45.63
2017-08-29T22:09:21.700Z,52.30
2017-08-29T22:11:49.763Z,60.70
2017-08-29T22:14:17.518Z,51.97
2017-08-29T22:16:45.107Z,66.10
2017-08-29T22:19:13.679Z,42.53
2017-08-29T22:21:41.425Z,43.63
2017-08-29T22:24:09.044Z,47.80
2017-08-29T22:26:36.939Z,47.50
2017-08-29T22:29:04.726Z,43.50
2017-08-29T22:31:32.311Z,40.70
2017-08-29T22:33:59.915Z,51.60
2017-08-29T22:36:27.515Z,44.27
2017-08-29T22:38:55.131Z,43.93
2017-08-29T22:41:22.734Z,45.03
2017-08-29T22:43:50.394Z,43.13
2017-08-29T22:46:18.135Z,47.13
2017-08-29T22:48:45.906Z,44.03
2017-08-29T22:51:13.482Z,40.97
2017-08-29T22:53:41.435Z,42.10
2017-08-29T22:56:09.194Z,42.63
2017-08-29T22:58:36.844Z,48.63
2017-08-29T23:01:04.535Z,38.10
2017-08-29T23:03:32.995Z,46.40
2017-08-29T23:06:00.574Z,37.17
2017-08-29T23:08:28.167Z,40.67
2017-08-29T23:10:55.783Z,40.40
2017-08-29T23:13:23.834Z,37.27
2017-08-29T23:15:51.631Z,40.73
2017-08-29T23:18:19.687Z,45.93
2017-08-29T23:20:47.436Z,47.50
2017-08-29T23:23:15.330Z,47.93
2017-08-29T23:25:42.899Z,78.97
2017-08-29T23:28:10.508Z,42.93
2017-08-29T23:30:38.959Z,38.50
2017-08-29T23:33:06.679Z,45.00
2017-08-29T23:35:34.335Z,44.90
2017-08-29T23:38:01.971Z,39.00
2017-08-29T23:40:29.559Z,46.87
2017-08-29T23:42:57.327Z,41.83
2017-08-29T23:45:25.075Z,47.97
2017-08-29T23:47:52.643Z,42.53
2017-08-29T23:50:20.599Z,47.07
2017-08-29T23:52:48.811Z,40.57
2017-08-29T23:55:16.769Z,51.87
2017-08-29T23:57:44.503Z,41.93
